createdAt,value
2022-12-31T00:01:56.623Z,97620.38
2022-12-31T00:04:23.785Z,97624.94
2022-12-31T00:06:52.190Z,97626.00
2022-12-31T00:09:19.345Z,97628.13
2022-12-31T00:11:46.413Z,97625.47
2022-12-31T00:14:13.503Z,97628.41
2022-12-31T00:16:42.139Z,97627.06
2022-12-31T00:19:11.289Z,97633.50
2022-12-31T00:21:39.310Z,97612.53
2022-12-31T00:24:08.636Z,97619.25
2022-12-31T00:26:35.856Z,97625.41
2022-12-31T00:29:04.529Z,97630.78
2022-12-31T00:31:33.392Z,97625.13
2022-12-31T00:34:01.038Z,97623.53
2022-12-31T00:36:30.021Z,97629.44
2022-12-31T00:38:58.686Z,97641.00
2022-12-31T00:41:28.402Z,97632.97
2022-12-31T00:43:55.891Z,97646.38
2022-12-31T00:46:23.614Z,97642.09
2022-12-31T00:48:51.221Z,97654.97
2022-12-31T00:51:21.514Z,97649.88
2022-12-31T00:53:48.945Z,97646.38
2022-12-31T00:56:18.714Z,97640.72
2022-12-31T00:58:47.376Z,97657.09
2022-12-31T01:01:16.994Z,97649.03
2022-12-31T01:03:45.152Z,97649.28
2022-12-31T01:06:12.616Z,97650.13
2022-12-31T01:08:40.005Z,97651.97
2022-12-31T01:11:07.492Z,97650.34
2022-12-31T01:13:34.790Z,97661.34
2022-12-31T01:16:09.402Z,97658.13
2022-12-31T01:18:37.496Z,97629.63
2022-12-31T01:21:06.650Z,97655.69
2022-12-31T01:23:34.486Z,97670.22
2022-12-31T01:26:02.561Z,97654.13
2022-12-31T01:28:30.092Z,97664.84
2022-12-31T01:30:57.550Z,97674.28
2022-12-31T01:33:26.049Z,97675.63
2022-12-31T01:35:53.130Z,97681.81
2022-12-31T01:38:20.316Z,97689.31
2022-12-31T01:40:47.643Z,97678.56
2022-12-31T01:43:17.244Z,97693.06
2022-12-31T01:45:47.805Z,97672.91
2022-12-31T01:48:19.676Z,97695.47
2022-12-31T01:50:48.684Z,97684.19
2022-12-31T01:53:17.874Z,97692.78
2022-12-31T01:55:49.096Z,97690.09
2022-12-31T01:58:19.494Z,97704.59
2022-12-31T02:00:47.733Z,97679.63
2022-12-31T02:03:22.519Z,97670.75
2022-12-31T02:05:57.764Z,97673.69
2022-12-31T02:08:25.240Z,97672.88
2022-12-31T02:10:52.378Z,97662.88
2022-12-31T02:13:19.680Z,97673.69
2022-12-31T02:15:54.794Z,97679.84
2022-12-31T02:18:31.642Z,97689.03
2022-12-31T02:21:29.469Z,97674.81
2022-12-31T02:24:20.014Z,97671.06
2022-12-31T02:26:55.891Z,97689.56
2022-12-31T02:29:58.504Z,97689.28
2022-12-31T02:32:35.090Z,97690.09
2022-12-31T02:35:08.732Z,97694.38
2022-12-31T02:37:39.385Z,97695.94
2022-12-31T02:40:09.988Z,97694.66
2022-12-31T02:42:37.095Z,97700.00
2022-12-31T02:45:04.963Z,97690.59
2022-12-31T02:47:51.233Z,97693.00
2022-12-31T02:50:34.775Z,97709.38
2022-12-31T02:53:18.850Z,97704.59
2022-12-31T02:55:53.827Z,97698.59
2022-12-31T02:58:27.513Z,97704.25
2022-12-31T03:00:58.307Z,97704.81
2022-12-31T03:03:27.621Z,97695.63
2022-12-31T03:05:56.303Z,97713.94
2022-12-31T03:08:24.693Z,97699.13
2022-12-31T03:10:52.393Z,97722.00
2022-12-31T03:13:19.494Z,97716.91
2022-12-31T03:15:46.599Z,97716.66
2022-12-31T03:18:15.852Z,97716.91
2022-12-31T03:20:46.698Z,97707.25
2022-12-31T03:23:16.576Z,97720.13
2022-12-31T03:25:44.061Z,97715.03
2022-12-31T03:28:13.149Z,97721.69
2022-12-31T03:30:42.468Z,97729.53
2022-12-31T03:33:09.646Z,97736.22
2022-12-31T03:35:39.051Z,97734.88
2022-12-31T03:38:08.068Z,97736.72
2022-12-31T03:40:39.257Z,97744.22
2022-12-31T03:43:06.357Z,97739.09
2022-12-31T03:45:33.455Z,97745.03
2022-12-31T03:48:01.003Z,97736.91
2022-12-31T03:50:28.441Z,97754.13
2022-12-31T03:52:55.544Z,97753.06
2022-12-31T03:55:24.137Z,97746.91
2022-12-31T03:57:51.488Z,97724.31
2022-12-31T04:00:22.001Z,97747.44
2022-12-31T04:02:49.939Z,97744.00
2022-12-31T04:05:18.132Z,97751.00
2022-12-31T04:07:45.780Z,97749.91
2022-12-31T04:10:15.411Z,97745.06
2022-12-31T04:12:44.474Z,97745.88
2022-12-31T04:15:15.945Z,97745.59
2022-12-31T04:17:43.073Z,97743.72
2022-12-31T04:20:11.270Z,97747.25
2022-12-31T04:22:38.391Z,97748.63
2022-12-31T04:25:07.813Z,97748.06
2022-12-31T04:27:34.869Z,97712.78
2022-12-31T04:30:03.870Z,97746.44
2022-12-31T04:32:30.953Z,97749.72
2022-12-31T04:34:58.130Z,97755.13
2022-12-31T04:37:25.241Z,97760.75
2022-12-31T04:39:52.303Z,97753.75
2022-12-31T04:42:19.440Z,97748.06
2022-12-31T04:44:46.559Z,97764.19
2022-12-31T04:47:18.746Z,97768.75
2022-12-31T04:49:50.443Z,97766.38
2022-12-31T04:52:17.511Z,97769.31
2022-12-31T04:54:44.565Z,97780.63
2022-12-31T04:57:11.652Z,97787.63
2022-12-31T04:59:38.733Z,97793.00
2022-12-31T05:02:06.016Z,97799.97
2022-12-31T05:04:34.539Z,97794.59
2022-12-31T05:07:01.607Z,97779.59
2022-12-31T05:09:28.671Z,97789.28
2022-12-31T05:11:55.812Z,97794.09
2022-12-31T05:14:22.889Z,97782.81
2022-12-31T05:16:50.051Z,97782.56
2022-12-31T05:19:17.228Z,97786.03
2022-12-31T05:21:45.852Z,97784.16
2022-12-31T05:24:12.907Z,97783.63
2022-12-31T05:26:39.995Z,97790.88
2022-12-31T05:29:07.072Z,97796.53
2022-12-31T05:31:34.133Z,97793.00
2022-12-31T05:34:01.224Z,97783.31
2022-12-31T05:36:28.327Z,97779.25
2022-12-31T05:38:56.777Z,97795.34
2022-12-31T05:41:23.872Z,97792.41
2022-12-31T05:43:50.939Z,97803.69
2022-12-31T05:46:18.052Z,97793.53
2022-12-31T05:48:45.151Z,97792.16
2022-12-31T05:51:12.246Z,97802.63
2022-12-31T05:53:39.319Z,97791.88
2022-12-31T05:56:07.800Z,97810.13
2022-12-31T05:58:34.876Z,97815.25
2022-12-31T06:01:02.014Z,97813.06
2022-12-31T06:03:29.201Z,97823.84
2022-12-31T06:05:56.287Z,97820.63
2022-12-31T06:08:23.378Z,97815.53
2022-12-31T06:10:50.490Z,97791.78
2022-12-31T06:13:18.930Z,97827.34
2022-12-31T06:15:46.051Z,97833.78
2022-12-31T06:18:13.196Z,97835.44
2022-12-31T06:20:40.344Z,97820.91
2022-12-31T06:23:07.395Z,97822.25
2022-12-31T06:25:34.949Z,97823.34
2022-12-31T06:28:02.017Z,97814.66
2022-12-31T06:30:30.705Z,97825.66
2022-12-31T06:32:57.900Z,97825.13
2022-12-31T06:35:25.046Z,97818.97
2022-12-31T06:37:52.245Z,97816.28
2022-12-31T06:40:19.344Z,97824.34
2022-12-31T06:42:46.435Z,97826.31
2022-12-31T06:45:13.525Z,97821.59
2022-12-31T06:47:42.080Z,97827.97
2022-12-31T06:50:09.342Z,97830.22
2022-12-31T06:52:36.743Z,97835.72
2022-12-31T06:55:05.016Z,97836.72
2022-12-31T06:57:32.544Z,97830.91
2022-12-31T07:00:00.175Z,97833.19
2022-12-31T07:02:48.764Z,97844.97
2022-12-31T07:05:30.970Z,97845.56
2022-12-31T07:08:08.623Z,97846.56
2022-12-31T07:10:46.833Z,97841.75
2022-12-31T07:13:37.113Z,97858.69
2022-12-31T07:16:17.709Z,97837.66
2022-12-31T07:18:50.896Z,97855.97
2022-12-31T07:21:29.786Z,97861.63
2022-12-31T07:23:57.417Z,97867.78
2022-12-31T07:26:35.339Z,97864.28
2022-12-31T07:29:11.690Z,97864.00
2022-12-31T07:31:52.801Z,97868.03
2022-12-31T07:34:31.938Z,97881.19
2022-12-31T07:37:07.744Z,97848.09
2022-12-31T07:39:41.557Z,97858.03
2022-12-31T07:42:16.428Z,97865.28
2022-12-31T07:44:58.796Z,97881.94
2022-12-31T07:47:28.223Z,97871.13
2022-12-31T07:49:56.855Z,97871.97
2022-12-31T07:52:26.042Z,97879.81
2022-12-31T07:54:53.105Z,97881.41
2022-12-31T07:57:22.836Z,97886.78
2022-12-31T08:00:03.508Z,97895.91
2022-12-31T08:02:53.811Z,97888.59
2022-12-31T08:05:29.252Z,97895.56
2022-12-31T08:08:07.036Z,97904.72
2022-12-31T08:10:38.868Z,97894.53
2022-12-31T08:13:10.336Z,97903.63
2022-12-31T08:15:38.347Z,97905.53
2022-12-31T08:18:06.580Z,97910.38
2022-12-31T08:20:39.702Z,97912.56
2022-12-31T08:23:22.109Z,97915.53
2022-12-31T08:26:11.349Z,97910.91
2022-12-31T08:28:53.772Z,97915.47
2022-12-31T08:31:25.206Z,97919.53
2022-12-31T08:34:05.780Z,97907.41
2022-12-31T08:36:41.703Z,97930.81
2022-12-31T08:39:22.344Z,97917.38
2022-12-31T08:41:52.899Z,97922.50
2022-12-31T08:44:29.009Z,97924.09
2022-12-31T08:47:05.860Z,97901.78
2022-12-31T08:49:35.193Z,97918.47
2022-12-31T08:52:03.079Z,97919.81
2022-12-31T08:54:32.162Z,97927.31
2022-12-31T08:57:09.216Z,97932.44
2022-12-31T08:59:43.548Z,97929.50
2022-12-31T09:02:27.286Z,97919.28
2022-12-31T09:05:04.700Z,97917.69
2022-12-31T09:07:36.974Z,97917.16
2022-12-31T09:10:17.551Z,97920.97
2022-12-31T09:12:56.780Z,97921.25
2022-12-31T09:15:33.460Z,97941.72
2022-12-31T09:18:01.118Z,97939.00
2022-12-31T09:20:42.181Z,97948.94
2022-12-31T09:23:11.459Z,97947.59
2022-12-31T09:25:46.747Z,97935.25
2022-12-31T09:28:17.778Z,97941.22
2022-12-31T09:30:50.971Z,97939.84
2022-12-31T09:33:31.306Z,97934.75
2022-12-31T09:36:03.149Z,97927.22
2022-12-31T09:38:37.362Z,97939.06
2022-12-31T09:41:16.132Z,97936.38
2022-12-31T09:44:23.325Z,97938.22
2022-12-31T09:47:28.663Z,97933.13
2022-12-31T09:50:18.843Z,97927.75
2022-12-31T09:53:03.292Z,97931.00
2022-12-31T09:55:37.766Z,97925.38
2022-12-31T09:58:23.683Z,97934.81
2022-12-31T10:00:55.494Z,97917.81
2022-12-31T10:03:51.939Z,97937.75
2022-12-31T10:06:24.371Z,97936.66
2022-12-31T10:09:13.189Z,97925.91
2022-12-31T10:11:57.590Z,97929.44
2022-12-31T10:14:45.321Z,97926.91
2022-12-31T10:17:27.365Z,97932.84
2022-12-31T10:20:32.996Z,97937.41
2022-12-31T10:23:35.481Z,97938.47
2022-12-31T10:26:16.077Z,97940.34
2022-12-31T10:28:53.959Z,97938.97
2022-12-31T10:31:38.945Z,97935.16
2022-12-31T10:34:14.899Z,97939.34
2022-12-31T10:36:53.049Z,97928.59
2022-12-31T10:39:31.923Z,97924.53
2022-12-31T10:42:31.773Z,97933.41
2022-12-31T10:45:26.375Z,97928.53
2022-12-31T10:48:20.547Z,97931.75
2022-12-31T10:51:11.777Z,97935.00
2022-12-31T10:54:02.538Z,97942.81
2022-12-31T10:57:10.108Z,97942.81
2022-12-31T11:00:02.991Z,97935.81
2022-12-31T11:03:01.553Z,97943.34
2022-12-31T11:05:58.882Z,97934.22
2022-12-31T11:08:43.186Z,97932.63
2022-12-31T11:11:28.641Z,97932.06
2022-12-31T11:14:22.741Z,97893.22
2022-12-31T11:17:08.754Z,97927.69
2022-12-31T11:19:49.380Z,97925.28
2022-12-31T11:22:29.108Z,97928.53
2022-12-31T11:25:18.364Z,97919.59
2022-12-31T11:28:13.087Z,97922.25
2022-12-31T11:30:51.182Z,97918.22
2022-12-31T11:33:31.572Z,97922.53
2022-12-31T11:36:15.630Z,97922.53
2022-12-31T11:38:51.378Z,97920.09
2022-12-31T11:41:25.306Z,97924.69
2022-12-31T11:44:00.396Z,97920.69
2022-12-31T11:46:49.072Z,97920.13
2022-12-31T11:49:34.729Z,97913.41
2022-12-31T11:52:26.113Z,97915.31
2022-12-31T11:55:03.278Z,97912.03
2022-12-31T11:57:34.534Z,97901.84
2022-12-31T12:00:06.554Z,97902.66
2022-12-31T12:02:37.328Z,97905.31
2022-12-31T12:05:10.967Z,97907.19
2022-12-31T12:07:38.650Z,97905.56
2022-12-31T12:10:22.419Z,97905.31
2022-12-31T12:12:50.513Z,97892.13
2022-12-31T12:15:22.734Z,97899.09
2022-12-31T12:17:53.899Z,97895.88
2022-12-31T12:20:27.980Z,97891.53
2022-12-31T12:22:58.350Z,97891.25
2022-12-31T12:25:36.541Z,97887.81
2022-12-31T12:28:17.446Z,97887.00
2022-12-31T12:30:45.361Z,97890.06
2022-12-31T12:33:18.336Z,97887.16
2022-12-31T12:35:46.320Z,97849.81
2022-12-31T12:38:17.147Z,97884.88
2022-12-31T12:40:55.618Z,97886.81
2022-12-31T12:43:25.339Z,97876.56
2022-12-31T12:45:54.073Z,97873.06
2022-12-31T12:48:35.319Z,97864.16
2022-12-31T12:51:13.215Z,97879.75
2022-12-31T12:53:51.012Z,97879.50
2022-12-31T12:56:35.089Z,97880.56
2022-12-31T12:59:29.004Z,97884.34
2022-12-31T13:02:03.040Z,97885.72
2022-12-31T13:04:47.741Z,97875.75
2022-12-31T13:07:24.597Z,97862.03
2022-12-31T13:10:05.265Z,97873.03
2022-12-31T13:13:13.785Z,97878.84
2022-12-31T13:15:36.573Z,97886.34
2022-12-31T13:18:16.606Z,97894.59
2022-12-31T13:20:47.765Z,97908.22
2022-12-31T13:23:21.090Z,97902.31
2022-12-31T13:26:04.654Z,97891.78
2022-12-31T13:28:35.968Z,97882.53
2022-12-31T13:31:09.637Z,97878.91
2022-12-31T13:33:41.469Z,97870.16
2022-12-31T13:36:13.562Z,97865.44
2022-12-31T13:38:43.449Z,97874.84
2022-12-31T13:41:17.336Z,97871.16
2022-12-31T13:43:53.950Z,97860.91
2022-12-31T13:46:26.188Z,97862.94
2022-12-31T13:48:57.031Z,97869.97
2022-12-31T13:51:34.123Z,97867.59
2022-12-31T13:54:06.645Z,97863.00
2022-12-31T13:56:37.506Z,97871.00
2022-12-31T13:59:13.934Z,97869.44
2022-12-31T14:01:44.639Z,97877.25
2022-12-31T14:04:15.885Z,97895.81
2022-12-31T14:06:50.271Z,97874.28
2022-12-31T14:09:22.147Z,97857.03
2022-12-31T14:12:22.553Z,97886.66
2022-12-31T14:14:59.529Z,97872.34
2022-12-31T14:17:33.552Z,97894.19
2022-12-31T14:20:12.770Z,97878.03
2022-12-31T14:22:49.560Z,97884.19
2022-12-31T14:25:23.353Z,97894.16
2022-12-31T14:27:54.720Z,97891.97
2022-12-31T14:30:28.068Z,97888.75
2022-12-31T14:33:22.325Z,97890.88
2022-12-31T14:36:13.743Z,97886.78
2022-12-31T14:38:53.124Z,97887.84
2022-12-31T14:41:32.915Z,97893.72
2022-12-31T14:44:09.954Z,97896.13
2022-12-31T14:46:51.798Z,97904.97
2022-12-31T14:49:33.329Z,97885.50
2022-12-31T14:52:08.921Z,97898.44
2022-12-31T14:54:37.693Z,97884.91
2022-12-31T14:57:11.815Z,97898.13
2022-12-31T14:59:40.850Z,97906.44
2022-12-31T15:02:28.251Z,97914.50
2022-12-31T15:05:15.040Z,97915.84
2022-12-31T15:07:55.801Z,97915.59
2022-12-31T15:10:35.301Z,97908.59
2022-12-31T15:13:05.749Z,97916.41
2022-12-31T15:15:56.251Z,97918.78
2022-12-31T15:18:37.231Z,97912.84
2022-12-31T15:21:38.938Z,97918.00
2022-12-31T15:24:17.677Z,97917.44
2022-12-31T15:26:49.681Z,97920.38
2022-12-31T15:29:30.082Z,97905.84
2022-12-31T15:31:59.936Z,97914.22
2022-12-31T15:34:30.200Z,97921.72
2022-12-31T15:36:59.861Z,97918.72
2022-12-31T15:39:38.709Z,97911.22
2022-12-31T15:42:37.953Z,97925.66
2022-12-31T15:45:11.803Z,97914.59
2022-12-31T15:47:43.000Z,97923.25
2022-12-31T15:50:18.620Z,97934.25
2022-12-31T15:52:50.405Z,97937.22
2022-12-31T15:55:25.782Z,97925.41
2022-12-31T15:57:55.699Z,97925.44
2022-12-31T16:00:24.226Z,97938.88
2022-12-31T16:02:53.964Z,97936.19
2022-12-31T16:05:25.054Z,97940.22
2022-12-31T16:07:53.896Z,97945.09
2022-12-31T16:10:24.989Z,97940.22
2022-12-31T16:12:54.032Z,97937.28
2022-12-31T16:15:23.761Z,97934.06
2022-12-31T16:18:05.684Z,97932.41
2022-12-31T16:20:41.161Z,97920.81
2022-12-31T16:23:19.902Z,97935.88
2022-12-31T16:25:47.215Z,97935.38
2022-12-31T16:28:17.963Z,97943.16
2022-12-31T16:30:45.391Z,97953.88
2022-12-31T16:33:14.891Z,97939.59
2022-12-31T16:35:43.347Z,97944.72
2022-12-31T16:38:13.828Z,97942.00
2022-12-31T16:40:43.218Z,97945.28
2022-12-31T16:43:25.595Z,97938.28
2022-12-31T16:45:54.784Z,97946.06
2022-12-31T16:48:22.017Z,97945.84
2022-12-31T16:50:53.338Z,97950.72
2022-12-31T16:53:24.206Z,97924.53
2022-12-31T16:55:54.757Z,97949.63
2022-12-31T16:58:27.374Z,97941.84
2022-12-31T17:00:59.924Z,97944.00
2022-12-31T17:03:28.481Z,97949.38
2022-12-31T17:06:11.580Z,97943.44
2022-12-31T17:08:41.257Z,97947.44
2022-12-31T17:11:23.338Z,97945.00
2022-12-31T17:13:56.995Z,97945.00
2022-12-31T17:16:25.170Z,97946.88
2022-12-31T17:18:52.526Z,97954.13
2022-12-31T17:21:25.469Z,97946.06
2022-12-31T17:23:55.309Z,97942.50
2022-12-31T17:26:25.357Z,97948.16
2022-12-31T17:28:55.042Z,97957.84
2022-12-31T17:31:30.865Z,97957.59
2022-12-31T17:34:29.896Z,97958.66
2022-12-31T17:37:18.172Z,97948.69
2022-12-31T17:39:49.822Z,97961.88
2022-12-31T17:42:25.560Z,97947.97
2022-12-31T17:44:55.907Z,97952.25
2022-12-31T17:47:23.102Z,97954.69
2022-12-31T17:49:50.307Z,97938.53
2022-12-31T17:52:18.709Z,97957.38
2022-12-31T17:54:45.975Z,97959.50
2022-12-31T17:57:24.086Z,97960.31
2022-12-31T17:59:51.371Z,97939.31
2022-12-31T18:02:18.538Z,97952.78
2022-12-31T18:04:45.669Z,97945.78
2022-12-31T18:07:12.774Z,97937.66
2022-12-31T18:09:41.193Z,97959.97
2022-12-31T18:12:08.337Z,97959.97
2022-12-31T18:14:35.422Z,97962.63
2022-12-31T18:17:02.513Z,97964.50
2022-12-31T18:20:02.813Z,97966.06
2022-12-31T18:22:17.265Z,97966.94
2022-12-31T18:24:45.929Z,97964.25
2022-12-31T18:27:15.962Z,97963.94
2022-12-31T18:29:43.363Z,97969.56
2022-12-31T18:32:19.423Z,97974.47
2022-12-31T18:34:46.548Z,97972.06
2022-12-31T18:37:21.293Z,97959.13
2022-12-31T18:39:50.431Z,97976.41
2022-12-31T18:42:18.874Z,97978.50
2022-12-31T18:44:46.535Z,97974.22
2022-12-31T18:47:14.807Z,97984.94
2022-12-31T18:49:42.077Z,97992.69
2022-12-31T18:52:12.947Z,97917.41
2022-12-31T18:54:40.219Z,97986.53
2022-12-31T18:57:10.055Z,97988.91
2022-12-31T18:59:37.141Z,97990.25
2022-12-31T19:02:04.817Z,97991.28
2022-12-31T19:04:31.926Z,97995.59
2022-12-31T19:06:59.015Z,97991.50
2022-12-31T19:12:15.047Z,97988.56
2022-12-31T19:14:42.380Z,97998.25
2022-12-31T19:19:35.433Z,98001.78
2022-12-31T19:22:02.583Z,97987.75
2022-12-31T19:24:29.845Z,98004.22
2022-12-31T19:26:56.910Z,98005.56
2022-12-31T19:29:27.465Z,98008.03
2022-12-31T19:31:55.015Z,98011.25
2022-12-31T19:34:22.152Z,98004.78
2022-12-31T19:36:49.271Z,97994.84
2022-12-31T19:39:18.909Z,98001.28
2022-12-31T19:41:49.155Z,98012.28
2022-12-31T19:44:21.669Z,98006.28
2022-12-31T19:46:50.090Z,98011.41
2022-12-31T19:49:17.160Z,98003.84
2022-12-31T19:51:44.261Z,98017.84
2022-12-31T19:54:12.995Z,97998.19
2022-12-31T19:56:40.350Z,97984.00
2022-12-31T19:59:09.457Z,97999.19
2022-12-31T20:01:36.654Z,98020.34
2022-12-31T20:04:05.359Z,98015.06
2022-12-31T20:06:32.652Z,98008.63
2022-12-31T20:08:59.846Z,98011.91
2022-12-31T20:11:27.304Z,98025.09
2022-12-31T20:13:54.507Z,98052.72
2022-12-31T20:16:23.324Z,98035.59
2022-12-31T20:18:50.455Z,98043.94
2022-12-31T20:21:20.906Z,98048.78
2022-12-31T20:23:48.470Z,98041.81
2022-12-31T20:26:15.856Z,98053.84
2022-12-31T20:28:43.000Z,98034.19
2022-12-31T20:31:12.275Z,98047.34
2022-12-31T20:33:39.621Z,98037.47
2022-12-31T20:36:09.194Z,98037.47
2022-12-31T20:38:37.838Z,98057.22
2022-12-31T20:41:06.275Z,98045.13
2022-12-31T20:43:34.017Z,98051.31
2022-12-31T20:46:10.953Z,98048.28
2022-12-31T20:48:42.194Z,98060.94
2022-12-31T20:51:09.318Z,98066.81
2022-12-31T20:53:37.735Z,98059.75
2022-12-31T20:56:05.179Z,98054.19
2022-12-31T20:58:32.448Z,98051.53
2022-12-31T21:00:59.802Z,98052.63
2022-12-31T21:06:14.762Z,98056.75
2022-12-31T21:08:43.648Z,98059.13
2022-12-31T21:11:11.009Z,98047.25
2022-12-31T21:13:38.100Z,98049.50
2022-12-31T21:16:05.514Z,98056.50
2022-12-31T21:18:32.630Z,98050.56
2022-12-31T21:20:59.857Z,98058.09
2022-12-31T21:23:26.941Z,98057.50
2022-12-31T21:25:55.338Z,98052.00
2022-12-31T21:28:22.425Z,98073.84
2022-12-31T21:30:49.553Z,98078.13
2022-12-31T21:33:16.724Z,98078.03
2022-12-31T21:35:50.140Z,98075.81
2022-12-31T21:38:20.962Z,98078.75
2022-12-31T21:40:48.118Z,98072.38
2022-12-31T21:43:16.633Z,98077.69
2022-12-31T21:45:44.126Z,98062.16
2022-12-31T21:48:12.492Z,98060.19
2022-12-31T21:50:39.549Z,98011.78
2022-12-31T21:53:06.645Z,98062.16
2022-12-31T21:55:33.726Z,98068.63
2022-12-31T21:58:25.875Z,98069.19
2022-12-31T22:00:50.325Z,98061.38
2022-12-31T22:03:17.416Z,98061.50
2022-12-31T22:05:50.480Z,98057.22
2022-12-31T22:08:18.469Z,98057.53
2022-12-31T22:10:52.138Z,98028.16
2022-12-31T22:13:20.400Z,98053.69
2022-12-31T22:16:03.890Z,98039.47
2022-12-31T22:18:32.309Z,98042.91
2022-12-31T22:21:04.089Z,98037.78
2022-12-31T22:23:32.392Z,98041.78
2022-12-31T22:26:00.293Z,98032.88
2022-12-31T22:28:38.199Z,98038.25
2022-12-31T22:31:07.890Z,98038.25
2022-12-31T22:33:35.077Z,98032.06
2022-12-31T22:36:04.460Z,98038.72
2022-12-31T22:38:33.064Z,98032.31
2022-12-31T22:41:04.890Z,98020.00
2022-12-31T22:43:32.112Z,98029.63
2022-12-31T22:46:05.068Z,98034.78
2022-12-31T22:48:33.644Z,98030.53
2022-12-31T22:51:00.757Z,98036.22
2022-12-31T22:53:27.885Z,98020.31
2022-12-31T22:55:55.555Z,98022.78
2022-12-31T22:58:24.143Z,98027.44
2022-12-31T23:00:52.284Z,98027.44
2022-12-31T23:03:19.581Z,98030.09
2022-12-31T23:05:50.032Z,98027.13
2022-12-31T23:08:23.360Z,98038.09
2022-12-31T23:10:53.315Z,98040.22
2022-12-31T23:13:20.823Z,98040.97
2022-12-31T23:15:47.923Z,98029.28
2022-12-31T23:18:15.022Z,98049.22
2022-12-31T23:20:42.117Z,98056.47
2022-12-31T23:23:14.480Z,98064.53
2022-12-31T23:25:43.167Z,98063.94
2022-12-31T23:28:12.629Z,98056.06
2022-12-31T23:30:40.568Z,98069.16
2022-12-31T23:33:12.198Z,98068.09
2022-12-31T23:35:39.310Z,98082.00
2022-12-31T23:38:06.494Z,98074.78
2022-12-31T23:40:34.938Z,98068.34
2022-12-31T23:43:02.985Z,98083.63
2022-12-31T23:45:33.315Z,98079.59
2022-12-31T23:48:00.870Z,98065.94
2022-12-31T23:50:28.329Z,98073.22
2022-12-31T23:52:55.413Z,98075.66
2022-12-31T23:55:22.546Z,98077.03
2022-12-31T23:57:51.026Z,98084.34
